Time;durP1;ratioP1;P1;durP2;ratioP2;P2;SDS_P1;SDS_P2;PMS_P1;PMS_P2;Temp;Humidity;BMP_temperature;BMP_pressure;BME280_temperature;BME280_humidity;BME280_pressure;Samples;Min_cycle;Max_cycle;Signal;HPM_P1;HPM_P2
2021/04/23 00:01:13;;;;;;;7.28;3.13;;;17.00;53.70;;;;;;5068287;28;20020;-66
2021/04/23 00:03:50;;;;;;;6.32;2.85;;;17.20;53.50;;;;;;5070199;28;20067;-64
2021/04/23 00:06:28;;;;;;;6.93;2.42;;;17.40;52.10;;;;;;5070842;28;20020;-64
2021/04/23 00:08:59;;;;;;;6.90;3.08;;;17.60;52.30;;;;;;5065637;28;20025;-66
2021/04/23 00:11:36;;;;;;;6.00;2.70;;;17.80;52.10;;;;;;5069132;28;20032;-68
2021/04/23 00:14:08;;;;;;;5.35;2.78;;;18.00;51.20;;;;;;5071358;28;20035;-62
2021/04/23 00:16:36;;;;;;;7.22;4.95;;;18.20;48.80;;;;;;5070365;28;20479;-58
2021/04/23 00:19:09;;;;;;;14.65;4.28;;;18.40;49.60;;;;;;5067936;28;20106;-60
2021/04/23 00:21:37;;;;;;;15.43;5.30;;;18.50;49.10;;;;;;5069197;28;20025;-66
2021/04/23 00:24:05;;;;;;;8.80;5.05;;;18.50;48.30;;;;;;5071012;28;20024;-65
2021/04/23 00:26:33;;;;;;;14.77;5.60;;;18.70;48.00;;;;;;5064606;28;20135;-64
2021/04/23 00:29:01;;;;;;;13.23;7.53;;;19.00;48.30;;;;;;5068364;28;20051;-65
2021/04/23 00:31:28;;;;;;;13.98;7.55;;;19.00;48.20;;;;;;5068667;28;20028;-67
2021/04/23 00:33:55;;;;;;;9.98;6.00;;;19.20;47.20;;;;;;5067607;28;20024;-62
2021/04/23 00:36:23;;;;;;;7.07;4.95;;;19.20;47.10;;;;;;5067723;28;20310;-61
2021/04/23 00:38:50;;;;;;;9.18;4.47;;;19.20;46.80;;;;;;5070869;28;20478;-66
2021/04/23 00:41:28;;;;;;;12.27;4.90;;;19.10;45.20;;;;;;5071692;28;20025;-66
2021/04/23 00:43:58;;;;;;;8.63;5.10;;;19.40;44.10;;;;;;5071744;28;20387;-65
2021/04/23 00:46:29;;;;;;;4.45;3.30;;;19.50;45.40;;;;;;5068888;28;20054;-62
2021/04/23 00:48:59;;;;;;;8.15;2.50;;;19.80;44.30;;;;;;5071759;28;20596;-62
2021/04/23 00:51:54;;;;;;;7.18;2.50;;;19.90;44.70;;;;;;5062539;28;20184;-64
2021/04/23 00:54:22;;;;;;;7.60;2.50;;;20.10;44.10;;;;;;5067981;28;20048;-61
2021/04/23 00:56:50;;;;;;;4.97;3.25;;;20.00;42.70;;;;;;5070010;28;20028;-65
2021/04/23 00:59:18;;;;;;;7.85;3.33;;;19.90;43.70;;;;;;5070468;28;20682;-65
2021/04/23 01:02:07;;;;;;;9.65;3.50;;;20.00;44.10;;;;;;5068130;28;20052;-61
2021/04/23 01:04:35;;;;;;;8.32;3.58;;;20.20;43.40;;;;;;5067347;28;20088;-65
2021/04/23 01:07:03;;;;;;;7.20;3.88;;;20.30;43.70;;;;;;5056006;28;20336;-64
2021/04/23 01:09:32;;;;;;;6.30;3.53;;;20.30;42.90;;;;;;5072611;28;20440;-63
2021/04/23 01:12:04;;;;;;;6.85;3.20;;;20.20;42.60;;;;;;5070457;28;20504;-64
2021/04/23 01:14:32;;;;;;;8.30;4.40;;;20.40;44.40;;;;;;5069967;28;20035;-63
2021/04/23 01:16:59;;;;;;;7.25;4.18;;;20.50;43.00;;;;;;5071801;28;20031;-64
2021/04/23 01:19:28;;;;;;;4.93;3.45;;;20.40;42.70;;;;;;5073688;28;20027;-62
2021/04/23 01:21:56;;;;;;;7.35;3.33;;;20.40;42.50;;;;;;5072881;28;20029;-65
2021/04/23 01:24:24;;;;;;;6.75;3.08;;;20.50;43.40;;;;;;5072404;28;20021;-66
2021/04/23 01:26:54;;;;;;;6.80;3.70;;;20.80;42.80;;;;;;5072825;28;20769;-63
2021/04/23 01:29:22;;;;;;;6.28;3.70;;;20.90;43.00;;;;;;5074391;28;20012;-65
2021/04/23 01:31:53;;;;;;;7.88;4.05;;;21.10;41.90;;;;;;5068769;28;20073;-64
2021/04/23 01:34:29;;;;;;;6.20;2.40;;;21.20;41.90;;;;;;5071423;28;20259;-65
2021/04/23 01:36:58;;;;;;;9.70;2.55;;;21.20;42.30;;;;;;5072640;28;20026;-65
2021/04/23 01:39:28;;;;;;;5.55;1.77;;;21.20;42.10;;;;;;5072802;28;20028;-65
2021/04/23 01:41:56;;;;;;;8.27;3.00;;;21.20;41.50;;;;;;5074328;28;20021;-63
2021/04/23 01:44:24;;;;;;;7.60;2.20;;;21.40;41.50;;;;;;5071079;28;20043;-65
2021/04/23 01:46:53;;;;;;;5.57;2.30;;;21.40;42.40;;;;;;5073821;28;20040;-65
2021/04/23 01:49:22;;;;;;;6.28;1.85;;;21.50;41.90;;;;;;5072730;28;20526;-65
2021/04/23 01:51:54;;;;;;;5.05;2.17;;;21.20;41.40;;;;;;5070242;28;20453;-64
2021/04/23 01:54:23;;;;;;;7.97;2.40;;;21.20;42.70;;;;;;5069434;28;20020;-63
2021/04/23 01:56:51;;;;;;;6.30;2.55;;;21.20;41.40;;;;;;5075354;28;20031;-64
2021/04/23 01:59:19;;;;;;;4.78;2.38;;;21.10;41.90;;;;;;5075190;28;20430;-64
2021/04/23 02:01:47;;;;;;;6.07;1.83;;;21.40;42.20;;;;;;5074739;28;20031;-63
2021/04/23 02:04:16;;;;;;;6.80;2.38;;;21.40;41.10;;;;;;5073838;28;20024;-65
2021/04/23 02:06:46;;;;;;;5.18;1.98;;;21.30;41.20;;;;;;5075994;28;20016;-64
2021/04/23 02:09:14;;;;;;;3.88;2.25;;;21.40;41.20;;;;;;5076160;28;20028;-62
2021/04/23 02:11:44;;;;;;;6.70;2.22;;;21.40;41.70;;;;;;5073738;28;20017;-64
2021/04/23 02:14:12;;;;;;;8.25;2.40;;;21.60;41.30;;;;;;5075421;28;20051;-62
2021/04/23 02:16:40;;;;;;;4.50;2.33;;;21.70;40.60;;;;;;5073552;28;20118;-63
2021/04/23 02:19:09;;;;;;;6.43;2.45;;;21.90;40.90;;;;;;5071588;28;20017;-63
2021/04/23 02:21:37;;;;;;;4.25;1.52;;;22.10;39.80;;;;;;5073633;28;20474;-63
2021/04/23 02:24:07;;;;;;;3.83;1.55;;;22.20;40.30;;;;;;5075330;28;20069;-65
2021/04/23 02:26:35;;;;;;;7.18;2.22;;;22.30;40.00;;;;;;5074140;28;20020;-68
2021/04/23 02:29:07;;;;;;;5.50;2.08;;;22.40;40.90;;;;;;5072676;28;20020;-63
2021/04/23 02:31:37;;;;;;;7.95;2.42;;;22.60;40.10;;;;;;5073981;28;20157;-67
2021/04/23 02:34:08;;;;;;;3.55;1.92;;;22.50;39.70;;;;;;5072017;28;20081;-68
2021/04/23 02:36:36;;;;;;;5.38;2.42;;;22.50;39.70;;;;;;5071917;28;20274;-68
2021/04/23 02:39:06;;;;;;;10.68;7.22;;;22.80;40.10;;;;;;5071569;28;20081;-68
2021/04/23 02:41:34;;;;;;;4.88;2.20;;;23.10;39.70;;;;;;5074680;28;20031;-64
2021/04/23 02:44:02;;;;;;;9.25;5.15;;;23.30;37.80;;;;;;5073922;28;20090;-66
2021/04/23 02:46:31;;;;;;;4.15;1.60;;;23.30;38.40;;;;;;5094076;22;20515;-68
2021/04/23 02:48:58;;;;;;;3.75;2.13;;;23.40;39.00;;;;;;5069742;28;20737;-69
2021/04/23 02:51:29;;;;;;;7.30;3.10;;;23.50;39.40;;;;;;5074575;28;20032;-65
2021/04/23 02:53:58;;;;;;;3.78;1.92;;;23.60;37.30;;;;;;5076363;28;20012;-64
2021/04/23 02:56:27;;;;;;;4.15;2.35;;;23.40;38.60;;;;;;5074303;28;20028;-65
2021/04/23 02:58:55;;;;;;;4.07;1.75;;;23.20;38.30;;;;;;5071376;28;20631;-63
2021/04/23 03:01:29;;;;;;;4.00;1.30;;;23.10;37.80;;;;;;5071886;28;20119;-62
2021/04/23 03:03:56;;;;;;;5.75;1.70;;;23.00;38.40;;;;;;5070620;28;20031;-67
2021/04/23 03:06:24;;;;;;;5.22;1.20;;;22.80;38.10;;;;;;5075235;28;20020;-64
2021/04/23 03:08:52;;;;;;;4.25;1.10;;;22.80;37.80;;;;;;5075471;28;20024;-64
2021/04/23 03:11:22;;;;;;;7.75;1.80;;;22.80;37.60;;;;;;5075413;28;20498;-65
2021/04/23 03:13:52;;;;;;;2.75;1.13;;;22.90;38.00;;;;;;5072393;28;20131;-63
2021/04/23 03:16:21;;;;;;;2.38;1.15;;;22.80;37.60;;;;;;5074422;28;20311;-63
2021/04/23 03:18:49;;;;;;;5.15;1.48;;;22.90;38.90;;;;;;5071897;28;20034;-63
2021/04/23 03:21:18;;;;;;;2.70;1.17;;;23.20;37.80;;;;;;5073829;28;20062;-63
2021/04/23 03:23:47;;;;;;;4.10;1.40;;;23.40;37.40;;;;;;5072353;28;20475;-66
2021/04/23 03:26:17;;;;;;;1.83;0.98;;;23.00;36.80;;;;;;5073950;28;20020;-65
2021/04/23 03:28:45;;;;;;;3.25;1.23;;;22.90;37.10;;;;;;5075763;28;20055;-64
2021/04/23 03:31:13;;;;;;;4.13;1.50;;;23.00;37.60;;;;;;5072018;28;20026;-65
2021/04/23 03:33:42;;;;;;;4.32;1.55;;;23.00;38.00;;;;;;5069800;28;20024;-62
2021/04/23 03:36:11;;;;;;;6.88;1.52;;;23.10;37.50;;;;;;5049288;28;20166;-62
2021/04/23 03:38:41;;;;;;;4.82;1.83;;;23.10;37.60;;;;;;5070782;28;20067;-62
2021/04/23 03:41:29;;;;;;;2.63;1.50;;;23.20;38.20;;;;;;5075088;28;20479;-64
2021/04/23 03:43:57;;;;;;;5.47;2.25;;;23.40;37.30;;;;;;5074066;28;20020;-62
2021/04/23 03:46:25;;;;;;;6.65;2.17;;;23.50;37.40;;;;;;5075266;28;20039;-62
2021/04/23 03:48:53;;;;;;;6.53;1.80;;;23.50;38.00;;;;;;5067117;28;20028;-66
2021/04/23 03:51:21;;;;;;;5.20;1.50;;;23.70;37.10;;;;;;5073460;28;20067;-66
2021/04/23 03:53:49;;;;;;;3.00;1.35;;;23.60;37.30;;;;;;5075086;28;20082;-63
2021/04/23 03:56:17;;;;;;;4.75;1.48;;;23.40;37.00;;;;;;5071936;28;20040;-63
2021/04/23 03:58:45;;;;;;;4.28;1.20;;;23.50;37.30;;;;;;5073137;28;20029;-65
2021/04/23 04:01:18;;;;;;;6.03;1.65;;;23.80;36.60;;;;;;5075449;28;20091;-63
2021/04/23 04:03:47;;;;;;;5.57;1.50;;;23.70;36.50;;;;;;5073953;28;20016;-64
2021/04/23 04:06:15;;;;;;;6.22;1.38;;;23.60;36.70;;;;;;5068390;28;20467;-66
2021/04/23 04:08:42;;;;;;;2.50;0.90;;;23.50;36.50;;;;;;5075840;28;20027;-67
2021/04/23 04:11:10;;;;;;;2.13;1.30;;;23.60;35.40;;;;;;5076264;28;20103;-67
2021/04/23 04:13:38;;;;;;;7.38;1.48;;;23.70;36.30;;;;;;5054428;28;20568;-63
2021/04/23 04:16:06;;;;;;;1.55;1.08;;;23.80;37.10;;;;;;5070135;28;20114;-64
2021/04/23 04:18:33;;;;;;;2.15;1.10;;;23.70;35.70;;;;;;5072658;28;20282;-64
2021/04/23 04:21:01;;;;;;;3.13;1.30;;;23.70;36.60;;;;;;5076160;28;20025;-65
2021/04/23 04:23:28;;;;;;;2.25;1.13;;;23.70;36.60;;;;;;5074019;28;20557;-64
2021/04/23 04:25:58;;;;;;;6.85;1.83;;;23.70;36.50;;;;;;5073104;28;20414;-64
2021/04/23 04:28:27;;;;;;;2.38;1.48;;;23.70;37.00;;;;;;5070833;28;20016;-63
2021/04/23 04:30:56;;;;;;;6.03;1.30;;;23.80;36.40;;;;;;5074512;28;20513;-63
2021/04/23 04:33:24;;;;;;;2.53;1.35;;;23.80;36.60;;;;;;5073655;28;20479;-64
2021/04/23 04:35:51;;;;;;;6.65;2.13;;;24.00;36.20;;;;;;5072511;28;20025;-63
2021/04/23 04:38:19;;;;;;;13.57;1.88;;;24.00;36.80;;;;;;5070122;28;20016;-64
2021/04/23 04:40:48;;;;;;;5.45;1.23;;;24.10;36.90;;;;;;5072665;28;20035;-64
2021/04/23 04:43:17;;;;;;;5.05;1.30;;;24.00;35.90;;;;;;5077128;28;20012;-64
2021/04/23 04:45:45;;;;;;;2.33;1.08;;;23.80;36.00;;;;;;5076361;28;20028;-64
2021/04/23 04:48:14;;;;;;;3.58;1.30;;;23.80;35.70;;;;;;5077723;28;20024;-64
2021/04/23 04:50:46;;;;;;;2.42;1.23;;;23.80;35.80;;;;;;5076150;28;20051;-67
2021/04/23 04:53:15;;;;;;;5.00;1.52;;;23.80;36.00;;;;;;5075820;28;20103;-63
2021/04/23 04:55:46;;;;;;;6.90;1.50;;;23.70;36.10;;;;;;5078292;28;20057;-63
2021/04/23 04:58:15;;;;;;;3.97;1.98;;;23.70;35.80;;;;;;5077535;28;20119;-64
2021/04/23 05:00:44;;;;;;;7.28;4.38;;;23.60;36.70;;;;;;5077016;28;20024;-63
2021/04/23 05:03:12;;;;;;;3.75;1.48;;;23.50;36.70;;;;;;5074396;28;20029;-64
2021/04/23 05:05:41;;;;;;;3.78;1.40;;;23.60;36.80;;;;;;5077816;28;20375;-67
2021/04/23 05:08:09;;;;;;;3.17;1.30;;;23.70;36.60;;;;;;5076215;28;20031;-63
2021/04/23 05:10:37;;;;;;;3.97;1.30;;;23.80;36.00;;;;;;5075046;28;20032;-64
2021/04/23 05:13:05;;;;;;;3.63;1.50;;;23.80;36.40;;;;;;5072590;28;20036;-65
2021/04/23 05:15:33;;;;;;;3.47;1.13;;;23.90;36.30;;;;;;5074571;28;20028;-65
2021/04/23 05:18:00;;;;;;;5.10;1.20;;;24.00;35.90;;;;;;5067632;28;20432;-66
2021/04/23 05:20:27;;;;;;;5.40;1.20;;;23.90;35.20;;;;;;5074582;28;20034;-64
2021/04/23 05:22:55;;;;;;;2.38;1.17;;;23.90;35.90;;;;;;5074036;28;20405;-64
2021/04/23 05:25:24;;;;;;;7.25;1.70;;;23.90;36.40;;;;;;5076903;28;20523;-64
2021/04/23 05:27:53;;;;;;;5.70;2.00;;;23.90;36.00;;;;;;5072923;28;20544;-65
2021/04/23 05:30:29;;;;;;;7.72;1.58;;;23.60;36.60;;;;;;5072818;28;20519;-67
2021/04/23 05:32:58;;;;;;;7.40;1.98;;;23.70;37.40;;;;;;5070315;28;20494;-64
2021/04/23 05:35:26;;;;;;;8.30;1.80;;;23.80;36.50;;;;;;5068028;28;20456;-63
2021/04/23 05:37:54;;;;;;;6.78;1.88;;;23.90;36.30;;;;;;5072089;28;20043;-63
2021/04/23 05:40:30;;;;;;;4.43;1.63;;;23.90;36.40;;;;;;5064632;28;20020;-67
2021/04/23 05:42:58;;;;;;;5.72;1.63;;;24.10;35.80;;;;;;5075933;28;20028;-67
2021/04/23 05:45:26;;;;;;;7.38;1.80;;;24.20;35.80;;;;;;5077605;28;21306;-65
2021/04/23 05:47:54;;;;;;;5.40;1.55;;;24.40;35.50;;;;;;5070276;28;20171;-66
2021/04/23 05:50:22;;;;;;;6.00;1.30;;;24.50;35.40;;;;;;5076845;28;20627;-66
2021/04/23 05:52:50;;;;;;;2.97;1.83;;;24.50;36.80;;;;;;5077726;28;20067;-64
2021/04/23 05:55:20;;;;;;;5.35;1.50;;;24.50;35.40;;;;;;5072301;28;20028;-61
2021/04/23 05:57:49;;;;;;;6.68;1.60;;;24.50;35.20;;;;;;5072755;28;20039;-62
2021/04/23 06:00:19;;;;;;;3.60;1.48;;;24.60;36.30;;;;;;5075731;28;20024;-61
2021/04/23 06:02:50;;;;;;;4.63;1.38;;;24.50;36.90;;;;;;5074082;28;20034;-64
2021/04/23 06:05:19;;;;;;;3.28;1.52;;;24.70;35.60;;;;;;5075478;28;20515;-62
2021/04/23 06:07:46;;;;;;;4.88;1.35;;;24.90;35.10;;;;;;5076760;28;20469;-61
2021/04/23 06:10:16;;;;;;;4.53;1.17;;;25.00;34.90;;;;;;5072666;28;20028;-65
2021/04/23 06:12:43;;;;;;;3.90;1.58;;;25.20;34.40;;;;;;5076437;28;20036;-64
2021/04/23 06:15:13;;;;;;;3.63;1.58;;;25.40;34.00;;;;;;5071336;28;20028;-62
2021/04/23 06:17:41;;;;;;;2.08;1.05;;;25.50;34.30;;;;;;5075208;28;20028;-62
2021/04/23 06:20:22;;;;;;;3.80;1.58;;;25.60;34.40;;;;;;5075466;28;20034;-64
2021/04/23 06:22:50;;;;;;;3.60;1.40;;;25.80;35.40;;;;;;5076156;28;20557;-65
2021/04/23 06:25:19;;;;;;;6.18;1.63;;;25.70;34.60;;;;;;5074023;28;20428;-65
2021/04/23 06:27:47;;;;;;;7.88;1.77;;;25.70;33.80;;;;;;5074739;28;20028;-61
2021/04/23 06:30:18;;;;;;;3.65;1.70;;;25.60;35.30;;;;;;5070098;28;20021;-65
2021/04/23 06:32:46;;;;;;;3.55;1.65;;;25.60;34.80;;;;;;5064478;28;20529;-64
2021/04/23 06:35:19;;;;;;;3.95;1.80;;;25.50;35.50;;;;;;5065193;28;20059;-64
2021/04/23 06:37:46;;;;;;;5.90;2.08;;;25.40;35.30;;;;;;5060438;28;20087;-63
2021/04/23 06:40:15;;;;;;;4.43;1.45;;;25.40;35.90;;;;;;5065311;28;20028;-61
2021/04/23 06:42:42;;;;;;;3.08;1.30;;;25.40;35.10;;;;;;5063680;28;20396;-62
2021/04/23 06:45:13;;;;;;;3.38;1.63;;;25.10;35.40;;;;;;5044393;28;20028;-61
2021/04/23 06:47:42;;;;;;;4.43;1.50;;;24.90;36.00;;;;;;5059653;28;20050;-62
2021/04/23 06:50:12;;;;;;;2.75;1.23;;;24.60;36.20;;;;;;5064575;28;20021;-64
2021/04/23 06:52:42;;;;;;;6.00;1.77;;;24.20;37.10;;;;;;5064496;28;20063;-61
2021/04/23 06:55:12;;;;;;;3.20;1.38;;;24.10;38.60;;;;;;5065958;28;20032;-65
2021/04/23 06:57:40;;;;;;;4.40;1.88;;;23.80;38.90;;;;;;5066532;28;20054;-62
2021/04/23 07:00:18;;;;;;;3.75;1.80;;;23.70;39.00;;;;;;5066951;28;20108;-65
2021/04/23 07:02:46;;;;;;;3.17;1.77;;;23.60;39.20;;;;;;5063076;28;20008;-66
2021/04/23 07:05:15;;;;;;;3.78;1.65;;;23.40;39.30;;;;;;5064231;28;20027;-64
2021/04/23 07:07:42;;;;;;;4.82;1.63;;;23.00;41.00;;;;;;5065796;28;20490;-61
2021/04/23 07:10:13;;;;;;;5.60;1.50;;;22.80;41.20;;;;;;5065527;28;20093;-65
2021/04/23 07:12:50;;;;;;;3.97;1.70;;;22.40;41.30;;;;;;5066078;28;20028;-62
2021/04/23 07:15:20;;;;;;;3.70;1.60;;;22.10;41.70;;;;;;5066111;28;20032;-64
2021/04/23 07:17:49;;;;;;;5.53;2.53;;;21.80;43.70;;;;;;5066169;28;20032;-65
2021/04/23 07:20:17;;;;;;;8.98;3.33;;;21.30;43.50;;;;;;5065964;28;20024;-61
2021/04/23 07:22:44;;;;;;;6.47;3.90;;;20.60;45.40;;;;;;5065730;28;20055;-64
2021/04/23 07:25:12;;;;;;;6.97;3.40;;;20.10;47.30;;;;;;5065703;28;20031;-60
2021/04/23 07:27:39;;;;;;;5.75;3.50;;;19.50;49.00;;;;;;5066194;28;20046;-63
2021/04/23 07:30:15;;;;;;;8.20;3.80;;;19.20;50.00;;;;;;5066222;28;20024;-66
2021/04/23 07:32:43;;;;;;;7.15;4.00;;;18.80;51.00;;;;;;5065706;28;20028;-62
2021/04/23 07:35:12;;;;;;;7.13;3.88;;;18.70;51.80;;;;;;5065354;28;20025;-63
2021/04/23 07:37:39;;;;;;;5.55;3.63;;;18.40;52.10;;;;;;5065724;28;20490;-63
2021/04/23 07:40:09;;;;;;;8.52;3.47;;;18.30;52.60;;;;;;5061289;28;20054;-63
2021/04/23 07:42:37;;;;;;;9.23;3.97;;;18.20;53.40;;;;;;5064887;28;20020;-63
2021/04/23 07:45:05;;;;;;;8.95;3.55;;;18.10;53.60;;;;;;5059000;28;20537;-65
2021/04/23 07:47:33;;;;;;;5.80;3.20;;;17.90;53.90;;;;;;5062329;28;20048;-65
2021/04/23 07:50:00;;;;;;;9.25;3.85;;;17.80;54.30;;;;;;5062552;28;20032;-63
2021/04/23 07:52:28;;;;;;;7.70;3.60;;;17.70;54.70;;;;;;5061484;28;20027;-63
2021/04/23 07:54:57;;;;;;;5.72;3.00;;;17.60;55.10;;;;;;5061109;28;20203;-62
2021/04/23 07:57:25;;;;;;;5.57;3.10;;;17.50;55.40;;;;;;5056416;28;20033;-63
2021/04/23 07:59:53;;;;;;;7.68;3.22;;;17.40;56.20;;;;;;5065746;28;20025;-64
2021/04/23 08:02:20;;;;;;;5.22;2.42;;;17.30;56.20;;;;;;5062368;28;20032;-65
2021/04/23 08:04:48;;;;;;;10.73;3.08;;;17.20;56.90;;;;;;5062677;28;20032;-68
2021/04/23 08:07:16;;;;;;;6.47;3.05;;;17.10;57.20;;;;;;5062220;28;20020;-67
2021/04/23 08:09:43;;;;;;;8.65;2.63;;;17.00;57.50;;;;;;5061996;28;20024;-68
2021/04/23 08:12:11;;;;;;;5.28;2.75;;;16.90;58.20;;;;;;5064252;28;20528;-65
2021/04/23 08:14:39;;;;;;;8.98;2.83;;;16.90;58.30;;;;;;5062114;28;20472;-70
2021/04/23 08:17:06;;;;;;;5.22;2.95;;;16.80;58.60;;;;;;5063613;28;20338;-68
2021/04/23 08:19:35;;;;;;;4.78;2.70;;;16.70;58.80;;;;;;5067294;28;20095;-61
2021/04/23 08:22:04;;;;;;;7.57;3.08;;;16.70;59.20;;;;;;5064154;28;20032;-64
2021/04/23 08:24:32;;;;;;;6.72;2.33;;;16.60;59.80;;;;;;5064458;28;20398;-71
2021/04/23 08:26:59;;;;;;;4.10;2.40;;;16.60;59.50;;;;;;5068076;28;20029;-70
2021/04/23 08:29:27;;;;;;;5.47;2.70;;;16.40;59.70;;;;;;5060343;28;20070;-67
2021/04/23 08:31:54;;;;;;;6.00;3.17;;;16.40;60.00;;;;;;5064503;28;20374;-62
2021/04/23 08:34:21;;;;;;;6.20;2.97;;;16.30;61.30;;;;;;5065303;28;20110;-71
2021/04/23 08:36:49;;;;;;;5.82;4.68;;;16.20;62.70;;;;;;5065962;28;20056;-62
2021/04/23 08:39:16;;;;;;;24.63;18.13;;;16.20;61.40;;;;;;5065432;28;20028;-67
2021/04/23 08:41:43;;;;;;;10.63;6.18;;;16.00;62.90;;;;;;5065803;28;20017;-61
2021/04/23 08:44:10;;;;;;;12.13;7.85;;;16.00;61.60;;;;;;5057495;28;20029;-64
2021/04/23 08:46:38;;;;;;;11.65;8.88;;;15.90;61.50;;;;;;5058563;28;20158;-60
2021/04/23 08:49:07;;;;;;;12.82;8.30;;;15.80;62.30;;;;;;5039918;28;20088;-69
2021/04/23 08:51:36;;;;;;;9.95;6.45;;;15.60;63.30;;;;;;5041181;28;20387;-70
2021/04/23 08:54:04;;;;;;;12.15;7.20;;;15.40;64.30;;;;;;5056628;28;20111;-72
2021/04/23 08:56:31;;;;;;;13.55;9.05;;;15.20;65.00;;;;;;5040206;28;20111;-61
2021/04/23 08:58:59;;;;;;;13.82;9.13;;;15.10;65.20;;;;;;5059653;28;20453;-62
2021/04/23 09:01:27;;;;;;;14.65;10.27;;;15.10;64.90;;;;;;5058657;28;20081;-65
2021/04/23 09:03:54;;;;;;;17.75;11.27;;;15.00;64.80;;;;;;5058632;28;20782;-71
2021/04/23 09:06:27;;;;;;;15.98;9.52;;;15.00;65.20;;;;;;5056228;28;20051;-63
2021/04/23 09:08:57;;;;;;;16.20;11.95;;;14.90;65.30;;;;;;5055358;28;20030;-66
2021/04/23 09:11:30;;;;;;;16.90;10.85;;;14.90;65.30;;;;;;5058738;28;20489;-62
2021/04/23 09:14:04;;;;;;;15.35;10.27;;;15.00;65.30;;;;;;5061358;28;20532;-62
2021/04/23 09:16:56;;;;;;;16.08;10.77;;;14.80;65.60;;;;;;5056033;28;20103;-64
2021/04/23 09:19:27;;;;;;;15.23;8.77;;;14.60;66.80;;;;;;5064501;28;20039;-62
2021/04/23 09:22:04;;;;;;;15.02;8.52;;;14.50;66.90;;;;;;5059978;28;20353;-63
2021/04/23 09:24:43;;;;;;;14.65;8.88;;;14.40;66.90;;;;;;5065726;28;20028;-64
2021/04/23 09:27:19;;;;;;;10.55;7.07;;;14.40;66.90;;;;;;5070657;28;20074;-69
2021/04/23 09:29:50;;;;;;;8.25;6.03;;;14.40;66.80;;;;;;5065157;28;20024;-66
2021/04/23 09:32:23;;;;;;;14.18;8.40;;;14.30;67.30;;;;;;5068295;28;20028;-66
2021/04/23 09:34:51;;;;;;;;;;;14.20;67.90;;;;;;5047158;28;20028;-67
2021/04/23 09:37:20;;;;;;;11.80;7.03;;;14.20;68.20;;;;;;5070061;28;20379;-67
2021/04/23 09:39:50;;;;;;;14.35;7.57;;;14.10;68.10;;;;;;5067532;28;20299;-66
2021/04/23 09:42:17;;;;;;;14.50;7.97;;;14.00;68.90;;;;;;5067707;28;20017;-64
2021/04/23 09:44:45;;;;;;;15.00;7.95;;;13.90;69.70;;;;;;5046511;28;20020;-68
2021/04/23 09:47:23;;;;;;;11.85;8.40;;;13.90;69.90;;;;;;5068064;28;20041;-69
2021/04/23 09:49:56;;;;;;;12.63;7.78;;;13.80;69.80;;;;;;5063085;28;20017;-68
2021/04/23 09:52:26;;;;;;;12.35;7.80;;;13.70;71.00;;;;;;5071122;28;20020;-67
2021/04/23 09:54:59;;;;;;;22.00;9.82;;;13.70;70.60;;;;;;5066108;28;20409;-67
2021/04/23 09:57:36;;;;;;;22.05;9.98;;;13.80;69.70;;;;;;5063851;28;20024;-68
2021/04/23 10:00:09;;;;;;;32.28;11.80;;;13.80;69.90;;;;;;5048015;28;20024;-64
2021/04/23 10:02:36;;;;;;;37.95;12.63;;;13.80;69.90;;;;;;5068506;28;20068;-65
2021/04/23 10:05:04;;;;;;;25.00;11.52;;;13.80;69.80;;;;;;5068763;28;20029;-69
2021/04/23 10:07:34;;;;;;;25.38;12.68;;;13.90;69.50;;;;;;5052928;28;20058;-61
2021/04/23 10:10:11;;;;;;;23.00;11.93;;;13.70;70.00;;;;;;5068587;28;20049;-63
2021/04/23 10:12:43;;;;;;;25.85;10.35;;;13.60;70.50;;;;;;5066784;28;20135;-64
2021/04/23 10:15:13;;;;;;;25.40;11.00;;;13.50;70.50;;;;;;5063775;28;20123;-68
2021/04/23 10:17:52;;;;;;;29.77;9.85;;;13.40;70.90;;;;;;5068724;28;20020;-67
2021/04/23 10:20:29;;;;;;;27.02;10.02;;;13.40;70.60;;;;;;5068345;28;20141;-62
2021/04/23 10:22:58;;;;;;;25.73;9.43;;;13.30;71.00;;;;;;5066136;28;20016;-64
2021/04/23 10:25:26;;;;;;;21.65;8.60;;;13.20;71.00;;;;;;5066389;28;20098;-63
2021/04/23 10:27:56;;;;;;;20.00;8.43;;;13.20;70.90;;;;;;5064572;28;20016;-62
2021/04/23 10:30:29;;;;;;;19.85;8.10;;;13.20;71.60;;;;;;5064631;28;20237;-67
2021/04/23 10:32:59;;;;;;;15.68;6.65;;;13.20;70.70;;;;;;5071095;28;20123;-63
2021/04/23 10:35:28;;;;;;;16.25;7.00;;;13.20;71.20;;;;;;5066535;28;20039;-62
2021/04/23 10:38:06;;;;;;;18.00;7.13;;;13.20;70.80;;;;;;5067672;28;20102;-63
2021/04/23 10:40:35;;;;;;;14.40;6.00;;;13.10;71.00;;;;;;5068758;28;20636;-70
2021/04/23 10:43:09;;;;;;;20.65;6.55;;;13.10;71.30;;;;;;5062821;28;20020;-67
2021/04/23 10:45:46;;;;;;;15.18;6.13;;;13.00;71.40;;;;;;5066429;28;20487;-67
2021/04/23 10:48:14;;;;;;;18.02;5.35;;;13.00;71.40;;;;;;5064757;28;20040;-62
2021/04/23 10:50:48;;;;;;;24.20;6.63;;;12.90;71.60;;;;;;5068580;28;20284;-65
2021/04/23 10:53:19;;;;;;;17.52;5.25;;;12.80;71.70;;;;;;5065358;28;20032;-69
2021/04/23 10:55:58;;;;;;;15.25;5.75;;;12.80;71.90;;;;;;5064807;28;20108;-63
2021/04/23 10:58:26;;;;;;;23.33;5.70;;;12.80;71.60;;;;;;5069626;28;20028;-62
2021/04/23 11:00:58;;;;;;;14.63;5.65;;;12.80;71.40;;;;;;5056884;28;20548;-61
2021/04/23 11:03:25;;;;;;;23.35;5.53;;;12.70;71.30;;;;;;5060044;28;20075;-66
2021/04/23 11:05:57;;;;;;;15.13;5.00;;;12.70;71.90;;;;;;5065173;28;20024;-61
2021/04/23 11:08:27;;;;;;;16.08;7.22;;;12.70;72.20;;;;;;5070265;28;20151;-68
2021/04/23 11:11:10;;;;;;;19.73;6.30;;;12.60;72.30;;;;;;5051102;28;20372;-70
2021/04/23 11:13:37;;;;;;;;;;;12.60;72.60;;;;;;5063930;28;20086;-65
2021/04/23 11:16:20;;;;;;;17.50;5.55;;;12.60;72.80;;;;;;5046742;28;20336;-63
2021/04/23 11:18:52;;;;;;;17.88;5.03;;;12.60;72.40;;;;;;5067568;28;20158;-69
2021/04/23 11:21:39;;;;;;;15.75;5.25;;;12.60;73.00;;;;;;5065651;28;20027;-68
2021/04/23 11:24:20;;;;;;;22.15;5.15;;;12.60;72.80;;;;;;5063750;28;20041;-66
2021/04/23 11:27:05;;;;;;;17.48;6.20;;;12.50;73.20;;;;;;5064484;28;20020;-61
2021/04/23 11:29:37;;;;;;;23.23;6.10;;;12.50;73.00;;;;;;5065072;28;20031;-60
2021/04/23 11:32:23;;;;;;;20.83;5.72;;;12.60;72.20;;;;;;5069274;28;20036;-68
2021/04/23 11:35:09;;;;;;;16.45;5.47;;;12.60;72.40;;;;;;5066701;28;20120;-61
2021/04/23 11:37:42;;;;;;;34.90;6.45;;;12.50;72.80;;;;;;5071369;28;20032;-67
2021/04/23 11:40:25;;;;;;;12.23;5.53;;;12.50;73.10;;;;;;5066268;28;20490;-59
2021/04/23 11:43:01;;;;;;;16.10;5.63;;;12.40;73.30;;;;;;5067155;28;20036;-59
2021/04/23 11:45:33;;;;;;;19.80;5.85;;;12.40;73.50;;;;;;5065366;28;20372;-66
2021/04/23 11:48:10;;;;;;;16.38;6.43;;;12.30;74.00;;;;;;5067740;28;20050;-67
2021/04/23 11:50:46;;;;;;;15.85;5.28;;;12.20;73.90;;;;;;5067377;28;20028;-68
2021/04/23 11:53:15;;;;;;;16.20;5.70;;;12.20;73.80;;;;;;5071490;28;20028;-66
2021/04/23 11:55:47;;;;;;;13.35;5.47;;;12.20;73.90;;;;;;5054053;28;20284;-67
2021/04/23 11:58:17;;;;;;;19.92;6.30;;;12.20;74.20;;;;;;5072262;28;20371;-66
2021/04/23 12:00:47;;;;;;;9.80;4.75;;;12.20;74.20;;;;;;5066960;28;20036;-68
2021/04/23 12:03:17;;;;;;;15.00;5.85;;;12.20;74.70;;;;;;5065962;28;20048;-61
2021/04/23 12:05:46;;;;;;;14.95;5.43;;;12.10;74.30;;;;;;5067485;28;20454;-68
2021/04/23 12:08:34;;;;;;;12.25;5.05;;;12.20;74.40;;;;;;5068574;28;20028;-59
2021/04/23 12:11:05;;;;;;;7.70;5.00;;;12.10;74.70;;;;;;5066400;28;20390;-60
2021/04/23 12:13:39;;;;;;;11.90;5.53;;;12.10;74.70;;;;;;5073299;28;20028;-65
2021/04/23 12:16:14;;;;;;;17.02;5.43;;;12.10;75.00;;;;;;5061877;28;20074;-69
2021/04/23 12:18:54;;;;;;;14.32;5.70;;;12.00;75.20;;;;;;5068839;28;20037;-61
2021/04/23 12:21:22;;;;;;;12.73;5.53;;;12.00;75.30;;;;;;5070011;28;20070;-62
2021/04/23 12:23:51;;;;;;;20.25;5.90;;;11.90;75.30;;;;;;5069272;28;20031;-62
2021/04/23 12:26:18;;;;;;;12.27;5.60;;;11.90;75.40;;;;;;5072543;28;20033;-59
2021/04/23 12:28:53;;;;;;;11.95;5.47;;;11.90;75.60;;;;;;5069141;28;20030;-61
2021/04/23 12:31:23;;;;;;;17.30;6.07;;;11.80;75.70;;;;;;5069744;28;20359;-65
2021/04/23 12:33:56;;;;;;;11.32;5.82;;;11.80;76.10;;;;;;5068681;28;20024;-67
2021/04/23 12:36:30;;;;;;;12.77;6.75;;;11.70;76.20;;;;;;5071780;28;20029;-61
2021/04/23 12:39:04;;;;;;;10.77;6.50;;;11.70;76.00;;;;;;5068150;28;20119;-65
2021/04/23 12:41:35;;;;;;;15.40;7.30;;;11.70;76.50;;;;;;5071588;28;20051;-63
2021/04/23 12:44:17;;;;;;;10.90;6.85;;;11.70;76.00;;;;;;5071517;28;20036;-64
2021/04/23 12:46:50;;;;;;;12.85;8.23;;;11.70;76.00;;;;;;5068054;28;20040;-63
2021/04/23 12:49:21;;;;;;;17.08;9.95;;;11.70;76.50;;;;;;5068422;28;20269;-58
2021/04/23 12:51:52;;;;;;;15.93;7.70;;;11.70;76.40;;;;;;5070734;28;20024;-67
2021/04/23 12:54:28;;;;;;;19.13;6.88;;;11.70;76.60;;;;;;5069104;28;20493;-60
2021/04/23 12:56:57;;;;;;;14.43;7.25;;;11.70;76.30;;;;;;5069455;28;20077;-61
2021/04/23 12:59:49;;;;;;;19.10;8.07;;;11.60;76.90;;;;;;5068262;28;20063;-67